Time;durP1;ratioP1;P1;durP2;ratioP2;P2;SDS_P1;SDS_P2;PMS_P1;PMS_P2;Temp;Humidity;BMP_temperature;BMP_pressure;BME280_temperature;BME280_humidity;BME280_pressure;Samples;Min_cycle;Max_cycle;Signal;HPM_P1;HPM_P2
2022/05/29 00:00:19;;;;;;;2.53;1.25;;;17.00;93.30;;;;;;5016342;28;20081;-89
2022/05/29 00:02:48;;;;;;;2.78;1.30;;;17.00;93.30;;;;;;5016313;28;20034;-89
2022/05/29 00:05:15;;;;;;;2.80;1.33;;;16.90;93.40;;;;;;5016229;28;20485;-89
2022/05/29 00:07:47;;;;;;;4.50;1.80;;;17.00;93.50;;;;;;5017711;28;20473;-89
2022/05/29 00:10:13;;;;;;;3.47;1.20;;;17.00;93.60;;;;;;5017492;28;20386;-89
2022/05/29 00:12:39;;;;;;;5.05;1.50;;;17.00;93.60;;;;;;5016295;28;20021;-89
2022/05/29 00:15:05;;;;;;;3.28;1.52;;;16.90;93.70;;;;;;5016201;28;20036;-89
2022/05/29 00:17:30;;;;;;;3.28;1.20;;;16.90;93.70;;;;;;5017662;28;20100;-89
2022/05/29 00:19:56;;;;;;;2.85;1.17;;;16.90;93.80;;;;;;5016111;28;20058;-89
2022/05/29 00:22:23;;;;;;;2.72;1.30;;;16.90;93.90;;;;;;5017231;28;20033;-89
2022/05/29 00:24:50;;;;;;;3.30;1.30;;;16.90;93.90;;;;;;5016041;28;20054;-89
2022/05/29 00:27:16;;;;;;;3.50;1.20;;;16.90;94.00;;;;;;5016997;28;20026;-89
2022/05/29 00:29:43;;;;;;;3.85;1.30;;;16.90;94.00;;;;;;5015915;28;20032;-89
2022/05/29 00:32:10;;;;;;;3.63;1.38;;;16.90;94.10;;;;;;5017190;28;20547;-89
2022/05/29 00:34:36;;;;;;;3.15;1.20;;;16.90;94.20;;;;;;5015989;28;20116;-89
2022/05/29 00:37:07;;;;;;;2.75;1.15;;;16.90;94.20;;;;;;5012828;28;20050;-89
2022/05/29 00:39:34;;;;;;;3.22;1.20;;;16.90;94.20;;;;;;4980149;28;20064;-90
2022/05/29 00:42:03;;;;;;;4.10;1.35;;;16.90;94.20;;;;;;4980102;28;20030;-90
2022/05/29 00:44:30;;;;;;;2.67;1.23;;;16.90;94.30;;;;;;4997419;28;20033;-90
2022/05/29 00:46:57;;;;;;;4.03;1.20;;;16.90;94.30;;;;;;4997738;28;20097;-90
2022/05/29 00:49:28;;;;;;;3.58;1.08;;;16.80;94.30;;;;;;4980244;28;20053;-90
2022/05/29 00:52:07;;;;;;;3.15;1.27;;;16.80;94.30;;;;;;4979954;28;20121;-90
2022/05/29 00:54:42;;;;;;;3.65;1.20;;;16.80;94.70;;;;;;4979970;28;20030;-90
2022/05/29 00:57:14;;;;;;;2.47;1.20;;;16.80;94.40;;;;;;4979815;28;20026;-90
2022/05/29 00:59:41;;;;;;;4.47;1.10;;;16.80;94.40;;;;;;4979653;28;20478;-89
2022/05/29 01:02:08;;;;;;;5.32;1.30;;;16.80;94.40;;;;;;4979721;28;20033;-89
2022/05/29 01:04:39;;;;;;;3.40;1.50;;;16.80;94.40;;;;;;4979348;28;20033;-89
2022/05/29 01:07:09;;;;;;;2.85;1.33;;;16.80;94.40;;;;;;4979383;28;20025;-90
2022/05/29 01:09:37;;;;;;;3.35;1.40;;;16.80;94.40;;;;;;4979596;28;20478;-89
2022/05/29 01:12:06;;;;;;;4.88;1.42;;;16.80;94.40;;;;;;4979539;28;20030;-90
2022/05/29 01:14:52;;;;;;;3.67;1.40;;;16.70;94.30;;;;;;4979280;28;20034;-89
2022/05/29 01:17:29;;;;;;;3.30;1.27;;;16.80;94.30;;;;;;4978645;28;20066;-90
2022/05/29 01:20:13;;;;;;;3.45;1.10;;;16.80;94.40;;;;;;4980511;28;20062;-89
2022/05/29 01:22:58;;;;;;;2.55;1.00;;;16.80;94.40;;;;;;4979317;28;20049;-89
2022/05/29 01:25:36;;;;;;;4.32;1.40;;;16.70;94.40;;;;;;4979198;28;20036;-89
2022/05/29 01:28:41;;;;;;;4.05;1.15;;;16.80;94.40;;;;;;4979164;28;20034;-90
2022/05/29 01:31:11;;;;;;;1.67;0.90;;;16.80;94.40;;;;;;4979234;28;20493;-89
2022/05/29 01:33:43;;;;;;;2.90;1.10;;;16.70;94.30;;;;;;4979243;28;20057;-90
2022/05/29 01:36:34;;;;;;;2.95;1.17;;;16.70;94.40;;;;;;4996435;28;20104;-89
2022/05/29 01:39:07;;;;;;;4.80;1.25;;;16.70;94.40;;;;;;4979950;28;20046;-90
2022/05/29 01:41:39;;;;;;;2.60;1.20;;;16.70;94.30;;;;;;4979199;28;20028;-90
2022/05/29 01:44:42;;;;;;;2.78;1.17;;;16.70;94.30;;;;;;4978750;28;20085;-90
2022/05/29 01:47:17;;;;;;;3.50;1.20;;;16.70;94.30;;;;;;4978831;28;20018;-90
2022/05/29 01:49:51;;;;;;;5.80;1.40;;;16.70;94.30;;;;;;4978999;28;20027;-90
2022/05/29 01:52:35;;;;;;;3.40;1.23;;;16.70;94.30;;;;;;4978980;28;20050;-89
2022/05/29 01:55:15;;;;;;;2.85;1.40;;;16.70;94.30;;;;;;4978850;28;20085;-89
2022/05/29 01:57:45;;;;;;;3.28;1.20;;;16.70;94.30;;;;;;4978755;28;20055;-89
2022/05/29 02:00:19;;;;;;;4.05;1.17;;;16.70;94.30;;;;;;4978787;28;20029;-89
2022/05/29 02:03:15;;;;;;;2.90;1.38;;;16.70;94.30;;;;;;4979407;28;20461;-90
2022/05/29 02:05:51;;;;;;;4.05;1.00;;;16.70;94.30;;;;;;4978589;28;20034;-90
2022/05/29 02:08:41;;;;;;;4.43;1.25;;;16.70;94.20;;;;;;4978514;28;20064;-90
2022/05/29 02:11:11;;;;;;;1.92;0.98;;;16.60;94.20;;;;;;4978520;28;20445;-90
2022/05/29 02:13:53;;;;;;;3.80;1.05;;;16.60;94.20;;;;;;4996262;28;20113;-90
2022/05/29 02:16:27;;;;;;;2.97;1.10;;;16.60;94.20;;;;;;4978146;28;20033;-90
2022/05/29 02:18:59;;;;;;;3.00;0.93;;;16.60;94.20;;;;;;4978504;28;20034;-89
2022/05/29 02:21:48;;;;;;;2.88;1.10;;;16.60;94.20;;;;;;4978669;28;20450;-89
2022/05/29 02:24:18;;;;;;;1.88;0.88;;;16.60;94.20;;;;;;4977976;28;20493;-90
2022/05/29 02:27:10;;;;;;;3.22;1.27;;;16.60;94.20;;;;;;4978238;28;20117;-89
2022/05/29 02:29:36;;;;;;;3.60;1.23;;;16.60;94.10;;;;;;4944463;28;20077;-90
2022/05/29 02:32:14;;;;;;;3.08;1.27;;;16.60;94.10;;;;;;4978221;28;20035;-89
2022/05/29 02:34:58;;;;;;;2.40;1.00;;;16.60;94.10;;;;;;4995613;28;20030;-89
2022/05/29 02:37:42;;;;;;;3.40;1.25;;;16.60;94.10;;;;;;4989457;28;20053;-90
2022/05/29 02:40:21;;;;;;;2.63;1.00;;;16.60;94.10;;;;;;5013860;28;20408;-89
2022/05/29 02:42:57;;;;;;;2.05;1.00;;;16.60;94.10;;;;;;5013685;28;20029;-89
2022/05/29 02:45:28;;;;;;;2.33;0.85;;;16.60;94.40;;;;;;5013648;28;20036;-89
2022/05/29 02:48:18;;;;;;;4.53;1.25;;;16.50;94.00;;;;;;5013667;28;20072;-89
2022/05/29 02:50:48;;;;;;;3.25;1.08;;;16.60;94.00;;;;;;5013444;28;20018;-89
2022/05/29 02:53:15;;;;;;;4.97;1.13;;;16.50;94.00;;;;;;5013343;28;20333;-89
2022/05/29 02:55:43;;;;;;;5.55;1.13;;;16.50;94.00;;;;;;5013337;28;20056;-89
2022/05/29 02:58:19;;;;;;;2.22;1.00;;;16.50;94.00;;;;;;5013465;28;20389;-90
2022/05/29 03:00:58;;;;;;;2.13;1.10;;;16.50;94.00;;;;;;5013293;28;20053;-89
2022/05/29 03:03:30;;;;;;;4.05;1.27;;;16.50;94.00;;;;;;5013096;28;20033;-90
2022/05/29 03:06:01;;;;;;;3.03;1.10;;;16.50;94.00;;;;;;5013041;28;20029;-89
2022/05/29 03:08:40;;;;;;;4.68;1.10;;;16.50;94.00;;;;;;5013160;28;20488;-89
2022/05/29 03:11:10;;;;;;;5.82;1.42;;;16.50;94.00;;;;;;5013570;28;20105;-90
2022/05/29 03:13:58;;;;;;;2.53;1.30;;;16.50;94.00;;;;;;5012825;28;20477;-90
2022/05/29 03:16:32;;;;;;;3.40;1.00;;;16.50;94.00;;;;;;5013084;28;20057;-90
2022/05/29 03:19:01;;;;;;;1.42;0.90;;;16.50;94.00;;;;;;5013382;28;20053;-89
2022/05/29 03:21:45;;;;;;;2.08;0.85;;;16.50;94.00;;;;;;5012693;28;20029;-89
2022/05/29 03:24:28;;;;;;;2.97;1.00;;;16.50;94.00;;;;;;5012702;28;20040;-89
2022/05/29 03:27:08;;;;;;;3.35;1.20;;;16.50;94.00;;;;;;5012496;28;20026;-90
2022/05/29 03:29:45;;;;;;;2.85;1.27;;;16.40;93.90;;;;;;5012806;28;20030;-90
2022/05/29 03:32:11;;;;;;;5.20;1.10;;;16.40;93.90;;;;;;5012872;28;20043;-89
2022/05/29 03:34:37;;;;;;;3.85;1.30;;;16.40;93.90;;;;;;5012672;28;20033;-90
2022/05/29 03:37:03;;;;;;;3.15;1.10;;;16.40;93.90;;;;;;5012515;28;20045;-90
2022/05/29 03:39:29;;;;;;;3.15;1.10;;;16.40;93.90;;;;;;5013871;28;20473;-89
2022/05/29 03:41:55;;;;;;;4.47;1.30;;;16.40;93.90;;;;;;5013338;28;20032;-89
2022/05/29 03:44:24;;;;;;;4.15;1.45;;;16.40;93.90;;;;;;5012543;28;20030;-90
2022/05/29 03:46:50;;;;;;;3.90;1.40;;;16.40;93.90;;;;;;5012723;28;20121;-89
2022/05/29 03:49:22;;;;;;;4.30;1.25;;;16.30;93.90;;;;;;5013738;28;20139;-89
2022/05/29 03:51:49;;;;;;;4.00;1.17;;;16.40;93.90;;;;;;5012934;28;20061;-89
2022/05/29 03:54:15;;;;;;;4.65;1.10;;;16.30;93.90;;;;;;5012662;28;20026;-90
2022/05/29 03:56:41;;;;;;;1.98;1.00;;;16.30;93.90;;;;;;5012788;28;20035;-89
2022/05/29 03:59:07;;;;;;;3.95;0.98;;;16.30;93.90;;;;;;5012773;28;20022;-89
2022/05/29 04:01:34;;;;;;;2.65;1.10;;;16.30;93.90;;;;;;5013539;28;20025;-89
2022/05/29 04:04:00;;;;;;;4.20;0.90;;;16.30;93.90;;;;;;5012426;28;20026;-89
2022/05/29 04:06:27;;;;;;;1.80;1.00;;;16.30;93.90;;;;;;5012333;28;20033;-89
2022/05/29 04:14:26;;;;;;;5.10;1.30;;;16.30;93.90;;;;;;5014163;28;20044;-89
2022/05/29 04:16:52;;;;;;;2.88;1.00;;;16.30;93.80;;;;;;5012592;28;20033;-89
2022/05/29 04:19:19;;;;;;;5.50;1.00;;;16.30;93.80;;;;;;5012234;28;20029;-89
2022/05/29 04:21:46;;;;;;;2.95;1.17;;;16.30;93.80;;;;;;5013830;28;20481;-90
2022/05/29 04:24:12;;;;;;;2.22;1.10;;;16.30;93.80;;;;;;5012308;28;20030;-89
2022/05/29 04:26:38;;;;;;;3.38;1.20;;;16.30;93.80;;;;;;5012278;28;20054;-89
2022/05/29 04:29:05;;;;;;;6.13;1.00;;;16.30;93.80;;;;;;5012241;28;20053;-90
2022/05/29 04:31:32;;;;;;;2.60;1.08;;;16.30;93.80;;;;;;5012447;28;20137;-89
2022/05/29 04:33:58;;;;;;;2.67;1.00;;;16.30;93.70;;;;;;5012330;28;20034;-90
2022/05/29 04:36:24;;;;;;;8.05;1.30;;;16.30;93.70;;;;;;5012101;28;20084;-90
2022/05/29 04:38:51;;;;;;;4.10;1.02;;;16.30;93.70;;;;;;5012513;28;20072;-89
2022/05/29 04:41:19;;;;;;;2.08;1.00;;;16.30;93.70;;;;;;5015907;28;20419;-89
2022/05/29 04:43:45;;;;;;;2.33;1.00;;;16.20;93.70;;;;;;5016283;28;20088;-89
2022/05/29 04:46:10;;;;;;;2.38;0.82;;;16.30;93.70;;;;;;5015863;28;20022;-89
2022/05/29 04:48:36;;;;;;;3.78;1.00;;;16.30;93.60;;;;;;5015702;28;20083;-89
2022/05/29 04:51:05;;;;;;;4.78;1.17;;;16.30;94.00;;;;;;5015662;28;20022;-89
2022/05/29 04:53:32;;;;;;;3.72;1.10;;;16.30;93.70;;;;;;5015312;28;20508;-89
2022/05/29 04:55:59;;;;;;;4.00;1.30;;;16.30;93.70;;;;;;5015610;28;20117;-90
2022/05/29 04:58:27;;;;;;;4.82;1.25;;;16.30;93.70;;;;;;5015610;28;20054;-89
2022/05/29 05:01:01;;;;;;;3.90;1.15;;;16.30;93.70;;;;;;5015630;28;20397;-90
2022/05/29 05:03:27;;;;;;;;;;;16.30;93.70;;;;;;5015777;28;20537;-89
2022/05/29 05:05:53;;;;;;;3.15;1.30;;;16.30;93.70;;;;;;5015558;28;19997;-89
2022/05/29 05:08:19;;;;;;;5.80;1.50;;;16.30;93.70;;;;;;5015393;28;20022;-90
2022/05/29 05:10:45;;;;;;;3.47;1.20;;;16.30;93.70;;;;;;5015272;28;20026;-90
2022/05/29 05:13:10;;;;;;;5.10;1.20;;;16.30;93.70;;;;;;5015204;28;20385;-89
2022/05/29 05:15:36;;;;;;;4.28;1.27;;;16.30;93.70;;;;;;5015351;28;20030;-90
2022/05/29 05:18:03;;;;;;;5.43;1.20;;;16.30;93.70;;;;;;5014981;28;20034;-90
2022/05/29 05:20:30;;;;;;;3.65;1.20;;;16.30;93.70;;;;;;5015186;28;20026;-90
2022/05/29 05:22:57;;;;;;;4.97;1.10;;;16.30;94.10;;;;;;5015015;28;20064;-90
2022/05/29 05:25:22;;;;;;;3.33;0.98;;;16.30;93.80;;;;;;5014993;28;20065;-89
2022/05/29 05:27:48;;;;;;;4.07;1.20;;;16.30;93.80;;;;;;5014868;28;20107;-90
2022/05/29 05:30:14;;;;;;;4.05;1.30;;;16.30;94.20;;;;;;5014971;28;20018;-90
2022/05/29 05:32:40;;;;;;;3.65;1.08;;;16.30;93.90;;;;;;5014886;28;20029;-90
2022/05/29 05:35:07;;;;;;;2.35;0.90;;;16.30;93.90;;;;;;5014848;28;20473;-89
2022/05/29 05:37:35;;;;;;;3.05;1.05;;;16.30;93.90;;;;;;5014465;28;20050;-90
2022/05/29 05:40:06;;;;;;;3.83;1.05;;;16.30;93.90;;;;;;5014717;28;20490;-90
2022/05/29 05:42:32;;;;;;;3.03;1.13;;;16.30;93.90;;;;;;5014896;28;20030;-90
2022/05/29 05:44:57;;;;;;;4.28;1.48;;;16.30;93.90;;;;;;5014565;28;20022;-90
2022/05/29 05:47:24;;;;;;;3.53;1.10;;;16.30;94.00;;;;;;5016076;28;20073;-89
2022/05/29 05:49:50;;;;;;;3.65;1.30;;;16.30;94.00;;;;;;5016168;28;20473;-90
2022/05/29 05:52:17;;;;;;;3.38;1.20;;;16.30;94.00;;;;;;5014223;28;20082;-90
2022/05/29 05:54:46;;;;;;;4.28;1.30;;;16.30;93.90;;;;;;5014674;28;20049;-90
2022/05/29 05:57:12;;;;;;;4.60;1.58;;;16.30;94.00;;;;;;5014588;28;20114;-90
2022/05/29 05:59:39;;;;;;;6.50;1.60;;;16.30;93.90;;;;;;5014684;28;20042;-90
2022/05/29 06:02:11;;;;;;;2.65;1.08;;;16.30;93.90;;;;;;5014622;28;20033;-89
2022/05/29 06:04:42;;;;;;;3.30;1.50;;;16.30;93.90;;;;;;5014028;28;20449;-90
2022/05/29 06:07:09;;;;;;;4.55;1.23;;;16.30;93.90;;;;;;5015468;28;20106;-89
2022/05/29 06:09:37;;;;;;;4.22;1.15;;;16.30;93.90;;;;;;5014516;28;20072;-90
2022/05/29 06:12:03;;;;;;;5.20;1.27;;;16.30;93.90;;;;;;5015973;28;20497;-89
2022/05/29 06:14:29;;;;;;;5.35;1.40;;;16.30;93.80;;;;;;5014379;28;20033;-90
2022/05/29 06:16:58;;;;;;;2.67;1.20;;;16.30;93.80;;;;;;5014244;28;20405;-90
2022/05/29 06:19:24;;;;;;;6.35;1.25;;;16.30;93.80;;;;;;5014135;28;20489;-90
2022/05/29 06:21:49;;;;;;;4.00;1.15;;;16.30;93.80;;;;;;5014084;28;20030;-90
2022/05/29 06:24:15;;;;;;;3.95;1.23;;;16.30;93.80;;;;;;5014041;28;20022;-90
2022/05/29 06:26:41;;;;;;;6.07;1.23;;;16.30;93.80;;;;;;5014086;28;20029;-89
2022/05/29 06:29:07;;;;;;;2.85;1.02;;;16.30;93.80;;;;;;5013972;28;20116;-90
2022/05/29 06:31:33;;;;;;;3.20;1.15;;;16.40;93.80;;;;;;5013923;28;20026;-90
2022/05/29 06:33:59;;;;;;;5.10;1.50;;;16.40;93.80;;;;;;5013887;28;20026;-90
2022/05/29 06:36:25;;;;;;;4.47;1.45;;;16.40;93.80;;;;;;5013996;28;20026;-89
2022/05/29 06:38:53;;;;;;;3.88;1.17;;;16.40;93.80;;;;;;5013287;28;20050;-90
2022/05/29 06:41:21;;;;;;;5.80;1.48;;;16.40;93.70;;;;;;5013755;28;20033;-89
2022/05/29 06:43:50;;;;;;;3.17;1.25;;;16.40;93.70;;;;;;5013582;28;20029;-90
2022/05/29 06:46:16;;;;;;;4.03;1.10;;;16.40;93.70;;;;;;5013679;28;20033;-90
2022/05/29 06:48:41;;;;;;;3.40;1.40;;;16.30;93.70;;;;;;5013718;28;20055;-90
2022/05/29 06:51:10;;;;;;;4.15;1.30;;;16.40;93.70;;;;;;5015116;28;20524;-90
2022/05/29 06:53:37;;;;;;;6.15;1.42;;;16.40;93.70;;;;;;5013502;28;20123;-90
2022/05/29 06:56:04;;;;;;;7.07;1.52;;;16.40;93.70;;;;;;5014574;28;20096;-90
2022/05/29 06:58:30;;;;;;;3.08;1.17;;;16.40;93.60;;;;;;5013571;28;20030;-90
2022/05/29 07:09:17;;;;;;;3.72;1.20;;;16.40;93.70;;;;;;5015416;28;20528;-90
2022/05/29 07:11:44;;;;;;;4.82;0.90;;;16.50;93.90;;;;;;5013312;28;20026;-90
2022/05/29 07:14:10;;;;;;;3.67;1.00;;;16.50;93.50;;;;;;5013248;28;20033;-89
2022/05/29 07:16:37;;;;;;;3.63;1.10;;;16.50;93.40;;;;;;5013218;28;20022;-88
2022/05/29 07:19:04;;;;;;;4.57;1.40;;;16.50;93.40;;;;;;5013098;28;20154;-89
2022/05/29 07:21:33;;;;;;;5.13;1.20;;;16.60;93.30;;;;;;5013117;28;20037;-89
2022/05/29 07:23:59;;;;;;;3.47;1.20;;;16.60;93.60;;;;;;5012991;28;20026;-89
2022/05/29 07:26:25;;;;;;;3.50;1.20;;;16.60;93.20;;;;;;5013009;28;20046;-89
2022/05/29 07:28:52;;;;;;;3.88;1.40;;;16.70;93.10;;;;;;5012435;28;20029;-89
2022/05/29 07:31:18;;;;;;;5.20;1.30;;;16.70;93.10;;;;;;5012852;28;20022;-89
2022/05/29 07:33:44;;;;;;;3.05;1.13;;;16.70;93.00;;;;;;5013025;28;20032;-89
2022/05/29 07:36:12;;;;;;;3.45;1.30;;;16.70;93.00;;;;;;5013008;28;20030;-90
2022/05/29 07:38:39;;;;;;;2.72;1.20;;;16.80;92.90;;;;;;5012649;28;20072;-89
2022/05/29 07:43:18;;;;;;;3.55;1.10;;;16.70;92.80;;;;;;5012921;28;20029;-89
2022/05/29 07:43:54;;;;;;;4.68;1.40;;;16.70;92.90;;;;;;5014105;28;20030;-89
2022/05/29 07:46:20;;;;;;;3.63;1.08;;;16.80;93.00;;;;;;5012972;28;20053;-89
2022/05/29 07:48:47;;;;;;;3.92;0.90;;;16.80;93.00;;;;;;5012763;28;20026;-89
2022/05/29 07:51:13;;;;;;;3.70;1.10;;;16.80;93.00;;;;;;5012834;28;20030;-89
2022/05/29 07:53:38;;;;;;;3.72;1.10;;;16.80;93.00;;;;;;5012938;28;20022;-90
2022/05/29 07:56:04;;;;;;;9.13;1.33;;;16.80;93.10;;;;;;5014263;28;20022;-90
2022/05/29 07:58:30;;;;;;;4.45;1.38;;;16.80;93.10;;;;;;5012639;28;20560;-89
2022/05/29 08:00:56;;;;;;;3.58;1.30;;;16.80;93.10;;;;;;5012892;28;20026;-89
2022/05/29 08:03:23;;;;;;;4.80;1.17;;;16.80;93.20;;;;;;5012901;28;20481;-88
2022/05/29 08:05:50;;;;;;;4.93;1.17;;;16.80;93.10;;;;;;5012786;28;20026;-89
2022/05/29 08:08:15;;;;;;;4.53;1.35;;;16.80;93.10;;;;;;5012210;28;20026;-90
2022/05/29 08:10:43;;;;;;;3.75;1.10;;;16.80;93.20;;;;;;5012553;28;20022;-89
2022/05/29 08:13:09;;;;;;;3.63;1.20;;;16.80;93.50;;;;;;5012950;28;20523;-89
2022/05/29 08:15:36;;;;;;;5.55;1.50;;;16.80;93.20;;;;;;5015987;28;20026;-89
2022/05/29 08:18:02;;;;;;;4.28;1.10;;;16.80;93.20;;;;;;5016493;28;20030;-89
2022/05/29 08:20:29;;;;;;;3.28;1.10;;;16.70;93.20;;;;;;5016496;28;20026;-89
2022/05/29 08:22:55;;;;;;;3.70;1.00;;;16.70;93.20;;;;;;5016254;28;20459;-89
2022/05/29 08:30:53;;;;;;;4.80;1.52;;;16.60;93.40;;;;;;5017935;28;20068;-89
2022/05/29 08:33:38;;;;;;;4.70;1.30;;;16.60;93.50;;;;;;5016377;28;20072;-89
2022/05/29 08:36:06;;;;;;;4.88;1.17;;;16.60;93.50;;;;;;5016215;28;20061;-90
2022/05/29 08:38:33;;;;;;;2.97;1.05;;;16.60;93.50;;;;;;5016159;28;20042;-89
2022/05/29 08:41:02;;;;;;;4.63;1.30;;;16.60;93.50;;;;;;5017406;28;20037;-90
2022/05/29 08:43:43;;;;;;;3.92;1.27;;;16.50;93.60;;;;;;5016020;28;20495;-89
2022/05/29 08:46:26;;;;;;;4.85;1.27;;;16.50;93.60;;;;;;5016235;28;20018;-89
2022/05/29 08:48:54;;;;;;;4.00;1.05;;;16.50;93.60;;;;;;5016048;28;20026;-89
2022/05/29 08:51:38;;;;;;;3.75;1.10;;;16.50;93.60;;;;;;5017271;28;20025;-89
2022/05/29 08:54:48;;;;;;;2.90;1.10;;;16.50;93.60;;;;;;5015917;28;20038;-89
2022/05/29 08:57:28;;;;;;;4.05;1.20;;;16.50;93.70;;;;;;4970762;28;20128;-89
2022/05/29 09:00:00;;;;;;;4.15;1.17;;;16.50;93.70;;;;;;5015734;28;20026;-89
2022/05/29 09:02:40;;;;;;;3.42;1.05;;;16.50;93.70;;;;;;5015978;28;20049;-89
2022/05/29 09:05:24;;;;;;;4.15;1.40;;;16.50;93.70;;;;;;5015410;28;20538;-89
2022/05/29 09:07:51;;;;;;;3.20;1.10;;;16.60;93.80;;;;;;5015738;28;20116;-90
2022/05/29 09:10:31;;;;;;;3.65;1.27;;;16.60;93.70;;;;;;5015512;28;20030;-89
2022/05/29 09:12:59;;;;;;;2.35;0.90;;;16.70;93.70;;;;;;5015584;28;20105;-90
2022/05/29 09:15:44;;;;;;;3.42;1.20;;;16.70;93.70;;;;;;5015911;28;20481;-89
2022/05/29 09:18:18;;;;;;;4.75;1.17;;;16.70;93.70;;;;;;5015457;28;20489;-89
2022/05/29 09:20:48;;;;;;;5.13;1.55;;;16.80;93.80;;;;;;5015404;28;20033;-90
2022/05/29 09:23:20;;;;;;;4.88;1.48;;;16.80;93.80;;;;;;5015483;28;20076;-90
2022/05/29 09:25:45;;;;;;;3.47;1.13;;;16.90;94.10;;;;;;5014375;28;20034;-90
2022/05/29 09:28:41;;;;;;;2.78;1.00;;;16.90;93.70;;;;;;5015555;28;20166;-90
2022/05/29 09:31:18;;;;;;;3.90;1.30;;;17.00;93.90;;;;;;5015679;28;20034;-89
2022/05/29 09:33:44;;;;;;;4.63;1.20;;;17.00;93.80;;;;;;5015901;28;20034;-89
2022/05/29 09:36:51;;;;;;;1.67;0.80;;;17.10;93.70;;;;;;5015292;28;20030;-88
2022/05/29 09:39:17;;;;;;;2.85;1.10;;;17.10;93.70;;;;;;5016360;28;20041;-89
2022/05/29 09:41:45;;;;;;;6.22;1.40;;;17.10;93.70;;;;;;5015617;28;20507;-89
2022/05/29 09:44:15;;;;;;;3.05;1.05;;;17.10;93.70;;;;;;5016185;28;20036;-89
2022/05/29 09:46:43;;;;;;;2.45;1.00;;;17.10;93.70;;;;;;5015572;28;20018;-90
2022/05/29 09:49:41;;;;;;;2.22;0.82;;;17.10;93.60;;;;;;5014682;28;20381;-89
2022/05/29 09:52:12;;;;;;;4.47;1.02;;;17.10;93.60;;;;;;5015031;28;20488;-91
2022/05/29 09:54:45;;;;;;;2.42;1.15;;;17.00;93.60;;;;;;5015072;28;20112;-90
2022/05/29 09:57:25;;;;;;;6.47;1.17;;;17.00;93.60;;;;;;5015309;28;20164;-90
2022/05/29 09:59:57;;;;;;;1.60;0.80;;;17.10;93.70;;;;;;5014292;28;20477;-90
2022/05/29 10:02:27;;;;;;;3.63;1.05;;;17.10;93.90;;;;;;5014230;28;20100;-89
2022/05/29 10:04:57;;;;;;;3.22;1.00;;;17.10;94.00;;;;;;5014323;28;20137;-89
2022/05/29 10:07:35;;;;;;;2.75;1.10;;;17.10;94.00;;;;;;5015636;28;20470;-90
2022/05/29 10:10:11;;;;;;;5.25;1.10;;;17.10;94.20;;;;;;5014395;28;20440;-90
2022/05/29 10:12:41;;;;;;;1.50;0.85;;;17.10;94.30;;;;;;5014319;28;20093;-89
2022/05/29 10:15:25;;;;;;;2.85;1.00;;;17.10;94.30;;;;;;5014622;28;20038;-89
2022/05/29 10:17:52;;;;;;;2.70;1.20;;;17.00;94.40;;;;;;5014276;28;20026;-90
2022/05/29 10:20:32;;;;;;;3.80;1.02;;;17.00;94.50;;;;;;5014136;28;20052;-90
2022/05/29 10:23:10;;;;;;;2.95;1.05;;;17.00;94.60;;;;;;5014002;28;20026;-89
2022/05/29 10:25:57;;;;;;;3.15;0.98;;;16.90;94.70;;;;;;5013681;28;20534;-89
2022/05/29 10:28:30;;;;;;;6.30;1.33;;;16.90;94.80;;;;;;5013501;28;20033;-89
2022/05/29 10:31:01;;;;;;;2.67;0.90;;;16.90;95.00;;;;;;5013808;28;20536;-89
2022/05/29 10:33:30;;;;;;;2.65;1.00;;;16.80;95.10;;;;;;5013766;28;20026;-89
2022/05/29 10:36:11;;;;;;;3.05;1.10;;;16.80;95.30;;;;;;5013882;28;20049;-89
2022/05/29 10:38:38;;;;;;;4.55;1.10;;;16.80;95.40;;;;;;4997454;28;20047;-90
2022/05/29 10:41:06;;;;;;;4.25;0.93;;;16.80;95.40;;;;;;4977722;28;20387;-89
2022/05/29 10:43:44;;;;;;;3.45;1.05;;;16.80;95.50;;;;;;4994885;28;20022;-89
2022/05/29 10:46:26;;;;;;;3.33;0.90;;;16.80;95.60;;;;;;4995243;28;20027;-88
2022/05/29 10:49:10;;;;;;;1.65;0.75;;;16.80;95.70;;;;;;4977521;28;20528;-89
2022/05/29 10:52:08;;;;;;;4.20;1.10;;;16.80;95.70;;;;;;4977415;28;20084;-88
2022/05/29 10:54:52;;;;;;;2.83;1.05;;;16.80;95.90;;;;;;4977267;28;20022;-89
2022/05/29 10:57:43;;;;;;;3.83;1.00;;;16.80;96.00;;;;;;4977103;28;20022;-89
2022/05/29 11:00:17;;;;;;;2.83;1.13;;;16.80;96.10;;;;;;4977025;28;20027;-88
2022/05/29 11:06:00;;;;;;;2.75;1.05;;;16.80;96.40;;;;;;4994621;28;20042;-88
2022/05/29 11:08:52;;;;;;;2.38;0.80;;;16.90;96.40;;;;;;4977159;28;20023;-88
2022/05/29 11:11:37;;;;;;;2.75;1.10;;;16.90;96.30;;;;;;4977061;28;20092;-89
2022/05/29 11:14:14;;;;;;;2.42;0.93;;;16.90;96.20;;;;;;4977123;28;20034;-89
2022/05/29 11:16:50;;;;;;;3.95;0.90;;;16.90;96.10;;;;;;4977475;28;20446;-89
2022/05/29 11:19:47;;;;;;;1.85;0.80;;;17.00;96.10;;;;;;4977273;28;20393;-89
2022/05/29 11:22:47;;;;;;;1.45;0.68;;;17.00;96.10;;;;;;4994834;28;20112;-89
2022/05/29 11:25:41;;;;;;;1.95;0.80;;;17.10;96.00;;;;;;4994591;28;20068;-90
2022/05/29 11:28:32;;;;;;;2.22;0.60;;;17.10;95.80;;;;;;4977326;28;20026;-90
2022/05/29 11:31:25;;;;;;;2.15;0.90;;;17.10;95.80;;;;;;4964663;28;20125;-89
2022/05/29 11:34:06;;;;;;;1.98;0.80;;;17.20;95.70;;;;;;4977136;28;20037;-89
2022/05/29 11:36:53;;;;;;;2.33;0.68;;;17.20;95.70;;;;;;4977168;28;20034;-89
2022/05/29 11:39:38;;;;;;;1.45;0.65;;;17.30;95.60;;;;;;4997074;28;20038;-90
2022/05/29 11:42:17;;;;;;;2.45;0.70;;;17.30;95.50;;;;;;4997395;28;20026;-89
2022/05/29 11:45:05;;;;;;;2.80;0.70;;;17.30;95.40;;;;;;4996576;28;20038;-89
2022/05/29 11:53:31;;;;;;;1.20;0.60;;;17.50;95.00;;;;;;5014882;28;20385;-89
2022/05/29 11:56:00;;;;;;;1.67;0.60;;;17.50;95.00;;;;;;4996777;28;20080;-90
2022/05/29 11:58:30;;;;;;;0.93;0.60;;;17.50;94.90;;;;;;4996756;28;20026;-90
2022/05/29 12:01:06;;;;;;;1.13;0.57;;;17.60;94.70;;;;;;4996501;28;20026;-90
2022/05/29 12:03:44;;;;;;;1.20;0.60;;;17.60;94.60;;;;;;4996472;28;20045;-90
2022/05/29 12:06:22;;;;;;;1.33;0.82;;;17.60;94.60;;;;;;4996400;28;20018;-90
2022/05/29 12:08:54;;;;;;;2.15;0.70;;;17.60;94.40;;;;;;5014009;28;20026;-88
2022/05/29 12:11:41;;;;;;;1.80;0.73;;;17.60;94.40;;;;;;4996227;28;20061;-89
2022/05/29 12:14:30;;;;;;;1.48;0.50;;;17.60;94.00;;;;;;5014099;28;20393;-89
2022/05/29 12:17:14;;;;;;;1.05;0.60;;;17.60;94.20;;;;;;4996649;28;20122;-89
2022/05/29 12:20:11;;;;;;;1.38;0.63;;;17.60;94.10;;;;;;4996173;28;20026;-89
2022/05/29 12:22:55;;;;;;;1.70;0.70;;;17.60;94.20;;;;;;4993903;28;20440;-89
2022/05/29 12:25:36;;;;;;;1.13;0.70;;;17.60;94.10;;;;;;4996074;28;20565;-90
2022/05/29 12:28:11;;;;;;;1.60;0.70;;;17.70;93.90;;;;;;4996304;28;20026;-89
2022/05/29 12:30:38;;;;;;;;;;;17.70;93.90;;;;;;4996700;28;20026;-89
2022/05/29 12:33:30;;;;;;;2.90;0.60;;;17.80;93.60;;;;;;4996086;28;19905;-90
2022/05/29 12:36:04;;;;;;;1.90;0.65;;;17.80;93.50;;;;;;5009261;28;20037;-90
2022/05/29 12:38:39;;;;;;;0.60;0.40;;;17.90;93.40;;;;;;5008932;28;20046;-90
2022/05/29 12:41:24;;;;;;;0.68;0.38;;;17.90;93.30;;;;;;5012496;28;20065;-90
2022/05/29 12:44:09;;;;;;;0.98;0.55;;;18.00;93.30;;;;;;5012613;28;20046;-90
2022/05/29 12:47:03;;;;;;;1.77;0.60;;;18.00;93.10;;;;;;5012721;28;20026;-90
2022/05/29 12:49:42;;;;;;;1.67;0.70;;;18.10;92.90;;;;;;5012430;28;20029;-90
2022/05/29 12:52:22;;;;;;;1.50;0.50;;;18.20;92.90;;;;;;5012755;28;20026;-90
2022/05/29 12:55:16;;;;;;;1.75;0.77;;;18.20;92.70;;;;;;5012512;28;20026;-90
2022/05/29 12:57:54;;;;;;;1.13;0.50;;;18.30;92.50;;;;;;5012794;28;20033;-89
2022/05/29 13:00:52;;;;;;;1.40;0.57;;;18.40;92.20;;;;;;5013460;28;20025;-89
2022/05/29 13:03:36;;;;;;;1.92;0.63;;;18.50;92.30;;;;;;5015685;28;20397;-90
2022/05/29 13:06:13;;;;;;;2.20;0.60;;;18.60;91.70;;;;;;5015540;28;20382;-90
2022/05/29 13:08:54;;;;;;;0.80;0.45;;;18.70;91.90;;;;;;5015522;28;20503;-90
2022/05/29 13:11:25;;;;;;;2.65;0.75;;;18.80;91.70;;;;;;5015411;28;20026;-90
2022/05/29 13:13:56;;;;;;;1.23;0.60;;;18.90;91.40;;;;;;5015299;28;20030;-89
2022/05/29 13:16:45;;;;;;;2.10;0.70;;;18.80;91.60;;;;;;5015235;28;20496;-89
2022/05/29 13:19:14;;;;;;;0.88;0.40;;;18.80;91.40;;;;;;5015207;28;20057;-89
2022/05/29 13:21:52;;;;;;;1.50;0.52;;;18.90;91.30;;;;;;5015238;28;20026;-89
2022/05/29 13:24:18;;;;;;;1.30;0.60;;;18.80;91.30;;;;;;5015093;28;20133;-89
2022/05/29 13:26:44;;;;;;;2.42;0.68;;;18.80;91.40;;;;;;5016314;28;20018;-89
2022/05/29 13:29:38;;;;;;;1.58;0.55;;;18.70;91.50;;;;;;5015182;28;20075;-89
2022/05/29 13:32:13;;;;;;;2.88;0.60;;;18.60;91.60;;;;;;5014742;28;20477;-89
2022/05/29 13:35:02;;;;;;;3.97;0.50;;;18.70;91.40;;;;;;5014797;28;20057;-89
2022/05/29 13:37:36;;;;;;;2.35;0.90;;;18.80;91.30;;;;;;4967994;28;20053;-90
2022/05/29 13:40:20;;;;;;;3.22;0.60;;;18.80;91.10;;;;;;5014451;28;20072;-89
2022/05/29 13:42:52;;;;;;;2.83;0.80;;;18.90;90.90;;;;;;5015000;28;20021;-90
2022/05/29 13:45:23;;;;;;;1.70;0.60;;;19.00;90.60;;;;;;5014675;28;20026;-89
2022/05/29 13:48:24;;;;;;;1.23;0.63;;;19.10;90.60;;;;;;5014790;28;20495;-90